sensor_id;sensor_type;location;lat;lon;timestamp;pressure;altitude;pressure_sealevel;temperature;humidity
70103;BME280;57470;50.034;15.256;2023-02-14T00:02:06;101438.25;;;2.85;99.93
70103;BME280;57470;50.034;15.256;2023-02-14T00:04:32;101440.84;;;2.91;99.74
70103;BME280;57470;50.034;15.256;2023-02-14T00:06:57;101437.34;;;2.92;99.62
70103;BME280;57470;50.034;15.256;2023-02-14T00:09:23;101447.84;;;2.91;100.00
70103;BME280;57470;50.034;15.256;2023-02-14T00:11:48;101438.16;;;2.97;100.00
70103;BME280;57470;50.034;15.256;2023-02-14T00:14:14;101439.03;;;3.01;100.00
70103;BME280;57470;50.034;15.256;2023-02-14T00:16:59;101443.41;;;3.02;100.00
70103;BME280;57470;50.034;15.256;2023-02-14T00:19:24;101437.22;;;3.11;99.65
70103;BME280;57470;50.034;15.256;2023-02-14T00:21:50;101440.69;;;3.16;99.65
70103;BME280;57470;50.034;15.256;2023-02-14T00:24:21;101444.16;;;3.21;99.66
70103;BME280;57470;50.034;15.256;2023-02-14T00:26:47;101441.50;;;3.24;99.77
70103;BME280;57470;50.034;15.256;2023-02-14T00:29:24;101447.59;;;3.30;99.31
70103;BME280;57470;50.034;15.256;2023-02-14T00:31:50;101439.75;;;3.23;99.87
70103;BME280;57470;50.034;15.256;2023-02-14T00:34:17;101450.19;;;3.35;99.28
70103;BME280;57470;50.034;15.256;2023-02-14T00:36:43;101445.84;;;3.29;99.52
70103;BME280;57470;50.034;15.256;2023-02-14T00:39:10;101444.84;;;3.43;99.44
70103;BME280;57470;50.034;15.256;2023-02-14T00:41:36;101442.16;;;3.50;98.81
70103;BME280;57470;50.034;15.256;2023-02-14T00:44:02;101444.84;;;3.44;98.73
70103;BME280;57470;50.034;15.256;2023-02-14T00:46:27;101438.72;;;3.44;99.38
70103;BME280;57470;50.034;15.256;2023-02-14T00:48:53;101436.94;;;3.47;98.98
70103;BME280;57470;50.034;15.256;2023-02-14T00:51:20;101433.59;;;3.30;99.82
70103;BME280;57470;50.034;15.256;2023-02-14T00:53:47;101439.59;;;3.46;99.16
70103;BME280;57470;50.034;15.256;2023-02-14T00:56:14;101426.59;;;3.26;100.00
70103;BME280;57470;50.034;15.256;2023-02-14T00:58:40;101429.09;;;3.43;100.00
70103;BME280;57470;50.034;15.256;2023-02-14T01:01:06;101435.22;;;3.43;100.00
70103;BME280;57470;50.034;15.256;2023-02-14T01:03:32;101435.34;;;3.31;100.00
70103;BME280;57470;50.034;15.256;2023-02-14T01:05:57;101439.59;;;3.46;100.00
70103;BME280;57470;50.034;15.256;2023-02-14T01:08:24;101438.72;;;3.45;100.00
70103;BME280;57470;50.034;15.256;2023-02-14T01:10:50;101429.19;;;3.29;100.00
70103;BME280;57470;50.034;15.256;2023-02-14T01:13:16;101435.16;;;3.51;100.00
70103;BME280;57470;50.034;15.256;2023-02-14T01:15:47;101427.09;;;3.67;100.00
70103;BME280;57470;50.034;15.256;2023-02-14T01:18:14;101425.34;;;3.68;99.86
70103;BME280;57470;50.034;15.256;2023-02-14T01:20:39;101425.31;;;3.74;99.86
70103;BME280;57470;50.034;15.256;2023-02-14T01:23:06;101423.63;;;3.65;99.85
70103;BME280;57470;50.034;15.256;2023-02-14T01:25:31;101422.66;;;3.75;99.04
70103;BME280;57470;50.034;15.256;2023-02-14T01:27:57;101427.00;;;3.78;98.97
70103;BME280;57470;50.034;15.256;2023-02-14T01:30:23;101430.66;;;3.65;99.51
70103;BME280;57470;50.034;15.256;2023-02-14T01:32:48;101429.66;;;3.76;100.00
70103;BME280;57470;50.034;15.256;2023-02-14T01:35:14;101426.09;;;3.84;99.66
70103;BME280;57470;50.034;15.256;2023-02-14T01:37:39;101418.22;;;3.81;99.59
70103;BME280;57470;50.034;15.256;2023-02-14T01:40:07;101420.94;;;3.71;99.72
70103;BME280;57470;50.034;15.256;2023-02-14T01:42:33;101427.94;;;3.74;100.00
70103;BME280;57470;50.034;15.256;2023-02-14T01:45:02;101420.94;;;3.73;99.22
70103;BME280;57470;50.034;15.256;2023-02-14T01:47:31;101420.84;;;3.84;99.36
70103;BME280;57470;50.034;15.256;2023-02-14T01:50:11;101421.81;;;3.72;100.00
70103;BME280;57470;50.034;15.256;2023-02-14T01:52:47;101410.50;;;3.62;100.00
70103;BME280;57470;50.034;15.256;2023-02-14T01:55:18;101413.38;;;3.33;100.00
70103;BME280;57470;50.034;15.256;2023-02-14T01:57:49;101413.19;;;3.56;100.00
70103;BME280;57470;50.034;15.256;2023-02-14T02:00:16;101405.22;;;3.65;100.00
70103;BME280;57470;50.034;15.256;2023-02-14T02:03:01;101406.13;;;3.63;100.00
70103;BME280;57470;50.034;15.256;2023-02-14T02:05:28;101399.09;;;3.63;100.00
70103;BME280;57470;50.034;15.256;2023-02-14T02:07:56;101396.78;;;3.25;100.00
70103;BME280;57470;50.034;15.256;2023-02-14T02:10:23;101393.94;;;3.50;100.00
70103;BME280;57470;50.034;15.256;2023-02-14T02:12:50;101384.34;;;3.49;100.00
70103;BME280;57470;50.034;15.256;2023-02-14T02:15:17;101390.44;;;3.51;100.00
70103;BME280;57470;50.034;15.256;2023-02-14T02:18:04;101386.34;;;3.18;100.00
70103;BME280;57470;50.034;15.256;2023-02-14T02:21:14;101379.91;;;3.51;100.00
70103;BME280;57470;50.034;15.256;2023-02-14T02:24:01;101389.34;;;3.74;100.00
70103;BME280;57470;50.034;15.256;2023-02-14T02:26:57;101383.22;;;3.69;100.00
70103;BME280;57470;50.034;15.256;2023-02-14T02:52:27;101367.59;;;3.56;100.00
70103;BME280;57470;50.034;15.256;2023-02-14T02:55:39;101368.56;;;3.44;100.00
70103;BME280;57470;50.034;15.256;2023-02-14T03:01:21;101355.50;;;3.33;100.00
70103;BME280;57470;50.034;15.256;2023-02-14T03:03:57;101357.28;;;3.31;100.00
70103;BME280;57470;50.034;15.256;2023-02-14T03:06:46;101354.63;;;3.36;100.00
70103;BME280;57470;50.034;15.256;2023-02-14T03:18:02;101362.41;;;3.47;100.00
70103;BME280;57470;50.034;15.256;2023-02-14T03:23:22;101361.00;;;3.05;100.00
70103;BME280;57470;50.034;15.256;2023-02-14T03:31:46;101375.75;;;3.25;100.00
70103;BME280;57470;50.034;15.256;2023-02-14T03:42:35;101367.84;;;3.27;100.00
70103;BME280;57470;50.034;15.256;2023-02-14T03:45:06;101374.13;;;3.11;100.00
70103;BME280;57470;50.034;15.256;2023-02-14T03:47:34;101370.63;;;3.06;100.00
70103;BME280;57470;50.034;15.256;2023-02-14T03:50:14;101374.81;;;3.34;100.00
70103;BME280;57470;50.034;15.256;2023-02-14T03:52:41;101369.81;;;2.99;100.00
70103;BME280;57470;50.034;15.256;2023-02-14T03:55:08;101369.75;;;3.10;100.00
70103;BME280;57470;50.034;15.256;2023-02-14T03:57:44;101377.63;;;3.10;100.00
70103;BME280;57470;50.034;15.256;2023-02-14T04:00:12;101378.44;;;3.18;100.00
70103;BME280;57470;50.034;15.256;2023-02-14T04:02:42;101381.00;;;3.27;100.00
70103;BME280;57470;50.034;15.256;2023-02-14T04:05:14;101373.19;;;3.19;100.00
70103;BME280;57470;50.034;15.256;2023-02-14T04:07:49;101376.75;;;3.12;100.00
70103;BME280;57470;50.034;15.256;2023-02-14T04:10:16;101368.56;;;3.49;100.00
70103;BME280;57470;50.034;15.256;2023-02-14T04:12:42;101372.94;;;3.48;100.00
70103;BME280;57470;50.034;15.256;2023-02-14T04:15:08;101371.13;;;3.53;100.00
70103;BME280;57470;50.034;15.256;2023-02-14T04:17:33;101371.91;;;3.63;100.00
70103;BME280;57470;50.034;15.256;2023-02-14T04:20:17;101372.72;;;3.68;100.00
70103;BME280;57470;50.034;15.256;2023-02-14T04:22:43;101366.59;;;3.67;100.00
70103;BME280;57470;50.034;15.256;2023-02-14T04:25:10;101365.66;;;3.74;100.00
70103;BME280;57470;50.034;15.256;2023-02-14T04:27:35;101357.59;;;3.87;99.59
70103;BME280;57470;50.034;15.256;2023-02-14T04:30:01;101354.16;;;3.85;99.63
70103;BME280;57470;50.034;15.256;2023-02-14T04:32:26;101347.06;;;3.90;99.62
70103;BME280;57470;50.034;15.256;2023-02-14T04:34:51;101349.66;;;3.93;99.02
70103;BME280;57470;50.034;15.256;2023-02-14T04:37:18;101344.34;;;3.96;98.84
70103;BME280;57470;50.034;15.256;2023-02-14T04:39:44;101345.06;;;4.10;98.57
70103;BME280;57470;50.034;15.256;2023-02-14T04:42:11;101351.25;;;4.06;98.78
70103;BME280;57470;50.034;15.256;2023-02-14T04:44:36;101353.19;;;3.93;98.67
70103;BME280;57470;50.034;15.256;2023-02-14T04:47:05;101350.59;;;3.86;98.42
70103;BME280;57470;50.034;15.256;2023-02-14T04:49:31;101352.25;;;3.96;98.40
70103;BME280;57470;50.034;15.256;2023-02-14T04:51:57;101351.22;;;4.09;98.20
70103;BME280;57470;50.034;15.256;2023-02-14T04:54:24;101352.91;;;4.14;98.02
70103;BME280;57470;50.034;15.256;2023-02-14T04:56:50;101347.53;;;4.21;97.56
70103;BME280;57470;50.034;15.256;2023-02-14T04:59:15;101355.53;;;4.13;97.70
70103;BME280;57470;50.034;15.256;2023-02-14T05:01:41;101347.63;;;4.14;97.45
70103;BME280;57470;50.034;15.256;2023-02-14T05:04:07;101356.59;;;3.98;97.70
70103;BME280;57470;50.034;15.256;2023-02-14T05:06:32;101353.94;;;4.01;98.07
70103;BME280;57470;50.034;15.256;2023-02-14T05:08:59;101358.25;;;4.10;97.97
70103;BME280;57470;50.034;15.256;2023-02-14T05:11:25;101360.78;;;4.16;97.26
70103;BME280;57470;50.034;15.256;2023-02-14T05:13:51;101359.94;;;4.12;97.27
70103;BME280;57470;50.034;15.256;2023-02-14T05:16:17;101358.16;;;4.16;97.35
70103;BME280;57470;50.034;15.256;2023-02-14T05:18:42;101355.50;;;4.19;97.28
70103;BME280;57470;50.034;15.256;2023-02-14T05:21:07;101349.59;;;3.97;97.28
70103;BME280;57470;50.034;15.256;2023-02-14T05:23:33;101357.28;;;4.14;97.41
70103;BME280;57470;50.034;15.256;2023-02-14T05:25:59;101341.44;;;4.20;97.56
70103;BME280;57470;50.034;15.256;2023-02-14T05:28:24;101352.75;;;4.27;97.01
70103;BME280;57470;50.034;15.256;2023-02-14T05:30:50;101350.13;;;4.25;97.01
70103;BME280;57470;50.034;15.256;2023-02-14T05:33:16;101356.28;;;4.24;96.91
70103;BME280;57470;50.034;15.256;2023-02-14T05:35:41;101356.38;;;4.20;96.83
70103;BME280;57470;50.034;15.256;2023-02-14T05:38:07;101358.88;;;4.29;96.77
70103;BME280;57470;50.034;15.256;2023-02-14T05:40:32;101356.19;;;4.32;96.49
70103;BME280;57470;50.034;15.256;2023-02-14T05:42:58;101365.84;;;4.31;96.29
70103;BME280;57470;50.034;15.256;2023-02-14T05:45:24;101369.25;;;4.39;96.08
70103;BME280;57470;50.034;15.256;2023-02-14T05:47:50;101373.75;;;4.33;96.13
70103;BME280;57470;50.034;15.256;2023-02-14T05:50:16;101363.28;;;4.27;96.05
70103;BME280;57470;50.034;15.256;2023-02-14T05:52:42;101363.22;;;4.30;95.84
70103;BME280;57470;50.034;15.256;2023-02-14T05:55:07;101367.66;;;4.29;96.07
70103;BME280;57470;50.034;15.256;2023-02-14T05:57:33;101362.97;;;4.51;95.58
70103;BME280;57470;50.034;15.256;2023-02-14T05:59:58;101375.22;;;4.55;95.20
70103;BME280;57470;50.034;15.256;2023-02-14T06:02:24;101384.91;;;4.53;95.26
70103;BME280;57470;50.034;15.256;2023-02-14T06:04:49;101387.66;;;4.42;95.79
70103;BME280;57470;50.034;15.256;2023-02-14T06:07:15;101388.63;;;4.37;95.09
70103;BME280;57470;50.034;15.256;2023-02-14T06:09:41;101390.56;;;4.21;95.84
70103;BME280;57470;50.034;15.256;2023-02-14T06:12:06;101398.31;;;4.35;95.95
70103;BME280;57470;50.034;15.256;2023-02-14T06:14:32;101399.19;;;4.35;95.69
70103;BME280;57470;50.034;15.256;2023-02-14T06:16:57;101393.09;;;4.30;96.15
70103;BME280;57470;50.034;15.256;2023-02-14T06:19:22;101400.97;;;4.33;96.22
70103;BME280;57470;50.034;15.256;2023-02-14T06:21:48;101400.09;;;4.31;96.33
70103;BME280;57470;50.034;15.256;2023-02-14T06:24:13;101400.09;;;4.33;95.56
70103;BME280;57470;50.034;15.256;2023-02-14T06:26:38;101404.44;;;4.35;96.23
70103;BME280;57470;50.034;15.256;2023-02-14T06:29:04;101401.81;;;4.37;95.88
70103;BME280;57470;50.034;15.256;2023-02-14T06:31:29;101399.06;;;4.44;95.74
70103;BME280;57470;50.034;15.256;2023-02-14T06:33:55;101406.88;;;4.50;95.23
70103;BME280;57470;50.034;15.256;2023-02-14T06:36:20;101404.25;;;4.50;94.66
70103;BME280;57470;50.034;15.256;2023-02-14T06:38:46;101404.44;;;4.38;95.64
70103;BME280;57470;50.034;15.256;2023-02-14T06:41:12;101409.81;;;4.29;95.97
70103;BME280;57470;50.034;15.256;2023-02-14T06:43:39;101411.41;;;4.39;95.95
70103;BME280;57470;50.034;15.256;2023-02-14T06:46:05;101409.75;;;4.31;95.71
70103;BME280;57470;50.034;15.256;2023-02-14T06:48:30;101412.34;;;4.35;95.86
70103;BME280;57470;50.034;15.256;2023-02-14T06:50:55;101415.88;;;4.33;96.23
70103;BME280;57470;50.034;15.256;2023-02-14T06:53:21;101413.16;;;4.39;95.89
70103;BME280;57470;50.034;15.256;2023-02-14T06:55:46;101415.09;;;4.28;96.17
70103;BME280;57470;50.034;15.256;2023-02-14T06:58:12;101418.53;;;4.33;96.08
70103;BME280;57470;50.034;15.256;2023-02-14T07:00:37;101414.13;;;4.32;96.24
70103;BME280;57470;50.034;15.256;2023-02-14T07:03:04;101417.66;;;4.31;95.69
70103;BME280;57470;50.034;15.256;2023-02-14T07:05:30;101409.63;;;4.41;95.39
70103;BME280;57470;50.034;15.256;2023-02-14T07:07:56;101414.91;;;4.41;95.82
70103;BME280;57470;50.034;15.256;2023-02-14T07:10:21;101413.91;;;4.50;95.40
70103;BME280;57470;50.034;15.256;2023-02-14T07:12:47;101406.13;;;4.42;95.15
70103;BME280;57470;50.034;15.256;2023-02-14T07:15:12;101406.06;;;4.47;95.05
70103;BME280;57470;50.034;15.256;2023-02-14T07:17:38;101406.75;;;4.63;94.82
70103;BME280;57470;50.034;15.256;2023-02-14T07:20:05;101400.63;;;4.58;94.43
70103;BME280;57470;50.034;15.256;2023-02-14T07:22:32;101402.50;;;4.49;94.54
70103;BME280;57470;50.034;15.256;2023-02-14T07:24:58;101401.63;;;4.47;94.71
70103;BME280;57470;50.034;15.256;2023-02-14T07:27:23;101398.97;;;4.52;94.79
70103;BME280;57470;50.034;15.256;2023-02-14T07:29:48;101403.22;;;4.64;94.29
70103;BME280;57470;50.034;15.256;2023-02-14T07:32:14;101402.44;;;4.56;94.41
70103;BME280;57470;50.034;15.256;2023-02-14T07:34:39;101399.72;;;4.60;94.59
70103;BME280;57470;50.034;15.256;2023-02-14T07:37:05;101403.19;;;4.65;94.13
70103;BME280;57470;50.034;15.256;2023-02-14T07:39:30;101402.34;;;4.62;94.23
70103;BME280;57470;50.034;15.256;2023-02-14T07:41:55;101405.69;;;4.74;93.92
70103;BME280;57470;50.034;15.256;2023-02-14T07:44:21;101402.91;;;4.83;93.72
70103;BME280;57470;50.034;15.256;2023-02-14T07:46:46;101401.13;;;4.85;93.50
70103;BME280;57470;50.034;15.256;2023-02-14T07:49:11;101419.69;;;4.78;93.31
70103;BME280;57470;50.034;15.256;2023-02-14T07:51:37;101410.03;;;4.78;93.67
70103;BME280;57470;50.034;15.256;2023-02-14T07:54:02;101410.00;;;4.81;93.39
70103;BME280;57470;50.034;15.256;2023-02-14T07:56:28;101409.91;;;4.87;93.20
70103;BME280;57470;50.034;15.256;2023-02-14T07:58:53;101407.28;;;4.86;92.50
70103;BME280;57470;50.034;15.256;2023-02-14T08:01:19;101411.66;;;4.88;92.97
70103;BME280;57470;50.034;15.256;2023-02-14T08:03:45;101411.50;;;4.99;92.42
70103;BME280;57470;50.034;15.256;2023-02-14T08:06:16;101409.00;;;4.90;92.56
70103;BME280;57470;50.034;15.256;2023-02-14T08:08:41;101407.91;;;5.02;92.07
70103;BME280;57470;50.034;15.256;2023-02-14T08:11:07;101413.13;;;5.06;92.17
70103;BME280;57470;50.034;15.256;2023-02-14T08:13:32;101419.31;;;5.05;91.97
70103;BME280;57470;50.034;15.256;2023-02-14T08:15:58;101419.31;;;5.04;92.03
70103;BME280;57470;50.034;15.256;2023-02-14T08:18:34;101415.78;;;5.05;92.39
70103;BME280;57470;50.034;15.256;2023-02-14T08:21:00;101414.00;;;5.07;92.00
70103;BME280;57470;50.034;15.256;2023-02-14T08:23:25;101410.50;;;5.06;91.99
70103;BME280;57470;50.034;15.256;2023-02-14T08:25:51;101411.41;;;5.05;91.94
70103;BME280;57470;50.034;15.256;2023-02-14T08:28:18;101414.66;;;5.21;91.62
70103;BME280;57470;50.034;15.256;2023-02-14T08:30:43;101415.63;;;5.17;91.53
70103;BME280;57470;50.034;15.256;2023-02-14T08:33:09;101416.53;;;5.14;91.70
70103;BME280;57470;50.034;15.256;2023-02-14T08:35:35;101420.81;;;5.20;91.63
70103;BME280;57470;50.034;15.256;2023-02-14T08:38:01;101415.81;;;5.03;91.86
70103;BME280;57470;50.034;15.256;2023-02-14T08:40:27;101416.44;;;5.20;91.23
70103;BME280;57470;50.034;15.256;2023-02-14T08:42:53;101416.47;;;5.19;90.75
70103;BME280;57470;50.034;15.256;2023-02-14T08:45:18;101419.81;;;5.28;91.25
70103;BME280;57470;50.034;15.256;2023-02-14T08:47:44;101417.00;;;5.41;90.66
70103;BME280;57470;50.034;15.256;2023-02-14T08:50:13;101415.13;;;5.46;90.41
70103;BME280;57470;50.034;15.256;2023-02-14T08:52:39;101416.94;;;5.44;90.71
70103;BME280;57470;50.034;15.256;2023-02-14T08:55:05;101423.91;;;5.48;89.68
70103;BME280;57470;50.034;15.256;2023-02-14T08:57:31;101414.44;;;5.36;90.59
70103;BME280;57470;50.034;15.256;2023-02-14T08:59:56;101422.97;;;5.52;90.30
70103;BME280;57470;50.034;15.256;2023-02-14T09:02:22;101413.25;;;5.54;89.64
70103;BME280;57470;50.034;15.256;2023-02-14T09:04:47;101419.22;;;5.65;89.80
70103;BME280;57470;50.034;15.256;2023-02-14T09:07:13;101421.63;;;5.79;88.96
70103;BME280;57470;50.034;15.256;2023-02-14T09:09:38;101424.28;;;5.77;88.88
70103;BME280;57470;50.034;15.256;2023-02-14T09:12:05;101415.34;;;5.84;88.20
70103;BME280;57470;50.034;15.256;2023-02-14T09:14:40;101420.72;;;5.80;87.99
70103;BME280;57470;50.034;15.256;2023-02-14T09:17:13;101420.75;;;5.27;89.15
70103;BME280;57470;50.034;15.256;2023-02-14T09:19:39;101428.16;;;5.56;88.97
70103;BME280;57470;50.034;15.256;2023-02-14T09:22:06;101421.66;;;5.76;88.67
70103;BME280;57470;50.034;15.256;2023-02-14T09:24:34;101420.78;;;5.77;87.95
70103;BME280;57470;50.034;15.256;2023-02-14T09:27:00;101427.63;;;5.90;87.80
70103;BME280;57470;50.034;15.256;2023-02-14T09:29:27;101430.75;;;6.09;87.44
70103;BME280;57470;50.034;15.256;2023-02-14T09:31:53;101428.25;;;6.02;87.73
70103;BME280;57470;50.034;15.256;2023-02-14T09:34:19;101430.66;;;6.15;87.36
70103;BME280;57470;50.034;15.256;2023-02-14T09:36:45;101428.94;;;6.12;86.75
70103;BME280;57470;50.034;15.256;2023-02-14T09:39:10;101428.47;;;6.36;85.89
70103;BME280;57470;50.034;15.256;2023-02-14T09:44:07;101419.06;;;6.22;86.16
70103;BME280;57470;50.034;15.256;2023-02-14T09:46:44;101413.59;;;6.32;85.87
70103;BME280;57470;50.034;15.256;2023-02-14T09:49:14;101426.06;;;6.26;86.41
70103;BME280;57470;50.034;15.256;2023-02-14T09:51:44;101424.81;;;6.44;85.17
70103;BME280;57470;50.034;15.256;2023-02-14T09:54:13;101420.81;;;6.23;85.60
70103;BME280;57470;50.034;15.256;2023-02-14T09:59:20;101416.78;;;6.48;85.04
70103;BME280;57470;50.034;15.256;2023-02-14T10:01:56;101421.88;;;6.57;85.13
70103;BME280;57470;50.034;15.256;2023-02-14T10:07:12;101416.25;;;6.72;84.65
70103;BME280;57470;50.034;15.256;2023-02-14T10:12:37;101407.91;;;6.52;83.88
70103;BME280;57470;50.034;15.256;2023-02-14T10:15:13;101415.56;;;6.63;83.54
70103;BME280;57470;50.034;15.256;2023-02-14T10:18:35;101420.53;;;6.80;83.56
70103;BME280;57470;50.034;15.256;2023-02-14T10:20:56;101420.97;;;5.64;87.49
70103;BME280;57470;50.034;15.256;2023-02-14T10:26:05;101422.47;;;6.28;85.72
70103;BME280;57470;50.034;15.256;2023-02-14T10:28:34;101421.50;;;6.32;85.55
70103;BME280;57470;50.034;15.256;2023-02-14T10:31:32;101414.31;;;6.39;85.51
70103;BME280;57470;50.034;15.256;2023-02-14T10:34:15;101421.34;;;6.40;84.96
70103;BME280;57470;50.034;15.256;2023-02-14T10:37:07;101425.16;;;6.68;84.38
70103;BME280;57470;50.034;15.256;2023-02-14T10:39:55;101418.00;;;5.84;85.94
70103;BME280;57470;50.034;15.256;2023-02-14T10:42:41;101419.63;;;6.37;85.90
70103;BME280;57470;50.034;15.256;2023-02-14T10:45:19;101425.34;;;6.61;84.92
70103;BME280;57470;50.034;15.256;2023-02-14T10:51:36;101417.03;;;6.77;83.18
70103;BME280;57470;50.034;15.256;2023-02-14T10:56:41;101423.09;;;6.83;84.29
70103;BME280;57470;50.034;15.256;2023-02-14T10:59:46;101424.94;;;7.18;82.74
70103;BME280;57470;50.034;15.256;2023-02-14T11:02:17;101419.44;;;7.25;81.30
70103;BME280;57470;50.034;15.256;2023-02-14T11:04:45;101427.31;;;7.28;81.61
70103;BME280;57470;50.034;15.256;2023-02-14T11:07:13;101420.28;;;7.27;81.55
70103;BME280;57470;50.034;15.256;2023-02-14T11:09:38;101418.44;;;7.31;81.68
70103;BME280;57470;50.034;15.256;2023-02-14T11:12:04;101406.06;;;7.33;80.78
70103;BME280;57470;50.034;15.256;2023-02-14T11:14:31;101413.34;;;7.23;81.14
70103;BME280;57470;50.034;15.256;2023-02-14T11:16:59;101404.72;;;7.15;80.85
70103;BME280;57470;50.034;15.256;2023-02-14T11:19:28;101406.34;;;7.21;81.40
70103;BME280;57470;50.034;15.256;2023-02-14T11:21:56;101397.09;;;7.01;82.39
70103;BME280;57470;50.034;15.256;2023-02-14T11:24:37;101401.72;;;6.92;82.00
70103;BME280;57470;50.034;15.256;2023-02-14T11:27:13;101400.34;;;7.14;81.57
70103;BME280;57470;50.034;15.256;2023-02-14T11:32:30;101383.78;;;6.66;83.71
70103;BME280;57470;50.034;15.256;2023-02-14T11:35:09;101388.75;;;7.18;83.22
70103;BME280;57470;50.034;15.256;2023-02-14T11:37:51;101389.13;;;7.40;82.30
70103;BME280;57470;50.034;15.256;2023-02-14T11:40:37;101389.06;;;7.41;80.32
70103;BME280;57470;50.034;15.256;2023-02-14T11:45:39;101378.44;;;6.69;80.96
70103;BME280;57470;50.034;15.256;2023-02-14T11:48:21;101379.66;;;6.93;81.89
70103;BME280;57470;50.034;15.256;2023-02-14T11:50:57;101385.75;;;7.33;80.91
70103;BME280;57470;50.034;15.256;2023-02-14T11:53:27;101376.63;;;7.08;82.67
70103;BME280;57470;50.034;15.256;2023-02-14T11:55:55;101381.72;;;7.17;81.16
70103;BME280;57470;50.034;15.256;2023-02-14T11:58:35;101378.81;;;7.28;81.02
70103;BME280;57470;50.034;15.256;2023-02-14T12:01:03;101372.69;;;7.26;81.67
70103;BME280;57470;50.034;15.256;2023-02-14T12:03:35;101369.50;;;7.47;80.28
70103;BME280;57470;50.034;15.256;2023-02-14T12:06:03;101369.66;;;7.42;80.65
70103;BME280;57470;50.034;15.256;2023-02-14T12:08:30;101361.47;;;7.51;80.59
70103;BME280;57470;50.034;15.256;2023-02-14T12:11:01;101352.84;;;7.08;81.90
70103;BME280;57470;50.034;15.256;2023-02-14T12:13:27;101359.00;;;7.44;81.02
70103;BME280;57470;50.034;15.256;2023-02-14T12:15:54;101355.00;;;7.62;79.93
70103;BME280;57470;50.034;15.256;2023-02-14T12:18:50;101356.78;;;7.61;80.60
70103;BME280;57470;50.034;15.256;2023-02-14T12:21:41;101342.53;;;7.67;79.24
70103;BME280;57470;50.034;15.256;2023-02-14T12:24:15;101346.97;;;7.65;80.36
70103;BME280;57470;50.034;15.256;2023-02-14T12:26:48;101351.69;;;7.53;80.47
70103;BME280;57470;50.034;15.256;2023-02-14T12:29:22;101349.06;;;7.86;79.65
70103;BME280;57470;50.034;15.256;2023-02-14T12:31:53;101347.22;;;7.22;79.92
70103;BME280;57470;50.034;15.256;2023-02-14T12:34:20;101345.41;;;7.24;80.82
70103;BME280;57470;50.034;15.256;2023-02-14T12:45:39;101335.69;;;7.24;82.04
70103;BME280;57470;50.034;15.256;2023-02-14T12:50:28;101335.50;;;6.96;82.17
70103;BME280;57470;50.034;15.256;2023-02-14T13:06:17;101326.28;;;6.35;84.70
70103;BME280;57470;50.034;15.256;2023-02-14T13:19:59;101321.06;;;6.72;83.42
70103;BME280;57470;50.034;15.256;2023-02-14T13:22:28;101314.44;;;6.92;82.89
70103;BME280;57470;50.034;15.256;2023-02-14T13:25:05;101306.13;;;6.33;82.03
70103;BME280;57470;50.034;15.256;2023-02-14T13:27:36;101315.19;;;6.60;82.02
70103;BME280;57470;50.034;15.256;2023-02-14T13:30:13;101316.69;;;7.07;80.88
70103;BME280;57470;50.034;15.256;2023-02-14T13:32:44;101306.28;;;6.25;83.72
70103;BME280;57470;50.034;15.256;2023-02-14T13:35:18;101310.44;;;6.35;84.02
70103;BME280;57470;50.034;15.256;2023-02-14T13:37:56;101313.69;;;6.87;82.06
70103;BME280;57470;50.034;15.256;2023-02-14T13:40:25;101308.69;;;6.74;83.54
70103;BME280;57470;50.034;15.256;2023-02-14T13:42:57;101309.59;;;7.09;80.97
70103;BME280;57470;50.034;15.256;2023-02-14T13:51:01;101299.31;;;7.32;78.44
70103;BME280;57470;50.034;15.256;2023-02-14T13:53:45;101300.25;;;7.30;78.80
70103;BME280;57470;50.034;15.256;2023-02-14T13:58:57;101303.13;;;7.21;78.57
70103;BME280;57470;50.034;15.256;2023-02-14T14:17:31;101290.16;;;7.44;78.28
70103;BME280;57470;50.034;15.256;2023-02-14T14:19:57;101290.72;;;7.24;78.21
70103;BME280;57470;50.034;15.256;2023-02-14T14:22:24;101297.53;;;7.33;77.95
70103;BME280;57470;50.034;15.256;2023-02-14T14:24:51;101289.38;;;7.40;78.19
70103;BME280;57470;50.034;15.256;2023-02-14T14:27:40;101295.53;;;7.07;79.31
70103;BME280;57470;50.034;15.256;2023-02-14T14:30:24;101302.69;;;7.37;78.89
70103;BME280;57470;50.034;15.256;2023-02-14T14:32:52;101286.94;;;7.33;78.01
70103;BME280;57470;50.034;15.256;2023-02-14T14:35:20;101279.81;;;7.35;78.30
70103;BME280;57470;50.034;15.256;2023-02-14T14:37:55;101289.47;;;7.37;77.93
70103;BME280;57470;50.034;15.256;2023-02-14T14:40:25;101288.72;;;7.32;78.74
70103;BME280;57470;50.034;15.256;2023-02-14T14:42:51;101286.00;;;7.34;78.49
70103;BME280;57470;50.034;15.256;2023-02-14T14:45:24;101287.03;;;7.30;78.43
70103;BME280;57470;50.034;15.256;2023-02-14T14:47:53;101290.06;;;6.79;78.46
70103;BME280;57470;50.034;15.256;2023-02-14T14:50:23;101287.84;;;6.98;78.38
70103;BME280;57470;50.034;15.256;2023-02-14T14:52:51;101288.41;;;7.10;77.85
70103;BME280;57470;50.034;15.256;2023-02-14T14:55:24;101281.94;;;6.87;79.14
70103;BME280;57470;50.034;15.256;2023-02-14T14:57:55;101292.34;;;6.94;78.78
70103;BME280;57470;50.034;15.256;2023-02-14T15:00:26;101289.69;;;6.94;78.17
70103;BME280;57470;50.034;15.256;2023-02-14T15:05:30;101283.22;;;6.70;78.86
70103;BME280;57470;50.034;15.256;2023-02-14T15:08:11;101284.00;;;6.74;78.62
70103;BME280;57470;50.034;15.256;2023-02-14T15:10:36;101283.25;;;6.69;78.65
70103;BME280;57470;50.034;15.256;2023-02-14T15:13:02;101284.13;;;6.69;79.40
70103;BME280;57470;50.034;15.256;2023-02-14T15:15:47;101282.44;;;6.65;79.47
70103;BME280;57470;50.034;15.256;2023-02-14T15:18:15;101282.31;;;6.33;79.39
70103;BME280;57470;50.034;15.256;2023-02-14T15:20:42;101270.06;;;6.67;79.39